createdAt,value
2023-01-17T00:00:48.269Z,6.66
2023-01-17T00:03:14.670Z,6.64
2023-01-17T00:05:59.581Z,6.62
2023-01-17T00:08:54.913Z,6.61
2023-01-17T00:11:21.331Z,6.60
2023-01-17T00:13:47.736Z,6.57
2023-01-17T00:16:14.182Z,6.52
2023-01-17T00:19:00.590Z,6.55
2023-01-17T00:21:45.688Z,6.52
2023-01-17T00:24:30.598Z,6.48
2023-01-17T00:27:12.084Z,6.48
2023-01-17T00:29:38.471Z,6.44
2023-01-17T00:32:05.046Z,6.43
2023-01-17T00:34:31.518Z,6.40
2023-01-17T00:36:57.883Z,6.42
2023-01-17T00:39:24.247Z,6.42
2023-01-17T00:41:50.606Z,6.41
2023-01-17T00:44:35.623Z,6.40
2023-01-17T00:47:20.704Z,6.39
2023-01-17T00:50:05.816Z,6.38
2023-01-17T00:52:50.825Z,6.36
2023-01-17T00:55:35.934Z,6.35
2023-01-17T00:58:27.623Z,6.35
2023-01-17T01:01:12.788Z,6.36
2023-01-17T01:03:57.846Z,6.32
2023-01-17T01:06:42.829Z,6.33
2023-01-17T01:09:27.973Z,6.31
2023-01-17T01:12:13.094Z,6.30
2023-01-17T01:14:58.087Z,6.29
2023-01-17T01:17:42.930Z,6.27
2023-01-17T01:20:29.095Z,6.26
2023-01-17T01:23:14.300Z,6.27
2023-01-17T01:25:59.236Z,6.22
2023-01-17T01:28:44.345Z,6.22
2023-01-17T01:31:29.574Z,6.18
2023-01-17T01:33:56.014Z,6.17
2023-01-17T01:36:22.422Z,6.14
2023-01-17T01:38:50.175Z,6.12
2023-01-17T01:41:16.658Z,6.09
2023-01-17T01:43:52.005Z,6.06
2023-01-17T01:46:23.775Z,6.05
2023-01-17T01:48:55.611Z,6.01
2023-01-17T01:51:32.975Z,6.00
2023-01-17T01:54:04.657Z,5.99
2023-01-17T01:56:31.703Z,5.98
2023-01-17T01:58:58.539Z,5.99
2023-01-17T02:01:25.009Z,5.94
2023-01-17T02:03:51.879Z,5.96
2023-01-17T02:07:13.891Z,5.97
2023-01-17T02:09:40.347Z,5.95
2023-01-17T02:12:07.318Z,5.96
2023-01-17T02:14:33.774Z,5.98
2023-01-17T02:17:22.203Z,5.99
2023-01-17T02:20:36.192Z,5.99
2023-01-17T02:23:23.054Z,6.00
2023-01-17T02:26:05.993Z,6.01
2023-01-17T02:28:54.468Z,6.02
2023-01-17T02:31:32.966Z,6.05
2023-01-17T02:34:25.223Z,6.06
2023-01-17T02:37:25.745Z,6.04
2023-01-17T02:40:03.164Z,6.04
2023-01-17T02:42:42.472Z,6.06
2023-01-17T02:45:09.359Z,6.09
2023-01-17T02:47:35.800Z,6.08
2023-01-17T02:50:06.406Z,6.08
2023-01-17T02:52:55.862Z,6.09
2023-01-17T02:55:37.466Z,6.10
2023-01-17T02:58:16.719Z,6.11
2023-01-17T03:00:58.095Z,6.15
2023-01-17T03:03:33.718Z,6.14
2023-01-17T03:06:11.715Z,6.14
2023-01-17T03:08:43.622Z,6.16
2023-01-17T03:11:11.164Z,6.16
2023-01-17T03:13:37.694Z,6.18
2023-01-17T03:16:12.913Z,6.19
2023-01-17T03:18:39.433Z,6.21
2023-01-17T03:21:05.992Z,6.24
2023-01-17T03:23:32.398Z,6.27
2023-01-17T03:25:58.823Z,6.28
2023-01-17T03:28:25.206Z,6.26
2023-01-17T03:30:51.637Z,6.26
2023-01-17T03:33:18.381Z,6.25
2023-01-17T03:35:45.651Z,6.25
2023-01-17T03:38:12.051Z,6.28
2023-01-17T03:40:38.521Z,6.26
2023-01-17T03:43:04.916Z,6.28
2023-01-17T03:45:31.470Z,6.27
2023-01-17T03:47:58.997Z,6.27
2023-01-17T03:50:25.834Z,6.27
2023-01-17T03:52:52.268Z,6.24
2023-01-17T03:55:18.701Z,6.21
2023-01-17T03:57:45.158Z,6.20
2023-01-17T04:00:12.143Z,6.16
2023-01-17T04:02:38.611Z,6.16
2023-01-17T04:05:05.325Z,6.14
2023-01-17T04:07:31.749Z,6.11
2023-01-17T04:09:58.184Z,6.10
2023-01-17T04:12:24.636Z,6.07
2023-01-17T04:14:51.093Z,6.06
2023-01-17T04:17:19.060Z,6.03
2023-01-17T04:19:45.452Z,5.99
2023-01-17T04:22:11.891Z,6.01
2023-01-17T04:24:38.346Z,6.00
2023-01-17T04:27:05.462Z,5.97
2023-01-17T04:29:32.035Z,5.98
2023-01-17T04:31:58.460Z,5.94
2023-01-17T04:34:24.958Z,5.93
2023-01-17T04:36:51.388Z,5.92
2023-01-17T04:39:17.860Z,5.94
2023-01-17T04:41:44.266Z,5.96
2023-01-17T04:44:10.742Z,5.94
2023-01-17T04:46:37.166Z,5.95
2023-01-17T04:49:03.586Z,5.96
2023-01-17T04:51:29.982Z,5.94
2023-01-17T04:53:56.442Z,5.94
2023-01-17T04:56:22.851Z,5.93
2023-01-17T04:58:49.348Z,5.91
2023-01-17T05:01:15.929Z,5.91
2023-01-17T05:03:42.360Z,5.92
2023-01-17T05:06:08.803Z,5.90
2023-01-17T05:08:35.231Z,5.91
2023-01-17T05:11:01.657Z,5.92
2023-01-17T05:13:28.054Z,5.92
2023-01-17T05:15:56.440Z,5.91
2023-01-17T05:18:22.896Z,5.89
2023-01-17T05:20:49.383Z,5.89
2023-01-17T05:23:15.982Z,5.87
2023-01-17T05:25:44.258Z,5.83
2023-01-17T05:28:14.169Z,5.80
2023-01-17T05:30:40.673Z,5.81
2023-01-17T05:33:08.141Z,5.77
2023-01-17T05:35:34.570Z,5.77
2023-01-17T05:38:01.203Z,5.75
2023-01-17T05:40:29.435Z,5.78
2023-01-17T05:42:57.756Z,5.80
2023-01-17T05:45:26.123Z,5.82
2023-01-17T05:47:54.511Z,5.77
2023-01-17T05:50:26.524Z,5.75
2023-01-17T05:52:55.315Z,5.72
2023-01-17T05:55:22.438Z,5.70
2023-01-17T05:57:48.833Z,5.68
2023-01-17T06:00:16.329Z,5.66
2023-01-17T06:02:43.311Z,5.63
2023-01-17T06:05:10.219Z,5.59
2023-01-17T06:07:36.624Z,5.57
2023-01-17T06:10:03.165Z,5.55
2023-01-17T06:12:29.576Z,5.53
2023-01-17T06:14:56.008Z,5.52
2023-01-17T06:17:22.445Z,5.49
2023-01-17T06:19:48.869Z,5.46
2023-01-17T06:22:15.265Z,5.49
2023-01-17T06:24:41.682Z,5.49
2023-01-17T06:27:11.170Z,5.46
2023-01-17T06:29:37.840Z,5.44
2023-01-17T06:32:04.611Z,5.43
2023-01-17T06:34:31.274Z,5.41
2023-01-17T06:36:57.971Z,5.42
2023-01-17T06:39:24.418Z,5.41
2023-01-17T06:41:50.856Z,5.40
2023-01-17T06:44:17.268Z,5.38
2023-01-17T06:46:45.035Z,5.38
2023-01-17T06:49:11.562Z,5.38
2023-01-17T06:51:37.987Z,5.37
2023-01-17T06:54:04.397Z,5.34
2023-01-17T06:56:31.986Z,5.37
2023-01-17T06:58:58.434Z,5.43
2023-01-17T07:01:25.415Z,5.41
2023-01-17T07:03:52.500Z,5.40
2023-01-17T07:06:19.201Z,5.40
2023-01-17T07:08:45.660Z,5.42
2023-01-17T07:11:12.121Z,5.42
2023-01-17T07:13:38.924Z,5.44
2023-01-17T07:16:06.300Z,5.44
2023-01-17T07:18:33.573Z,5.44
2023-01-17T07:21:00.248Z,5.43
2023-01-17T07:23:27.074Z,5.44
2023-01-17T07:25:55.160Z,5.48
2023-01-17T07:28:21.893Z,5.53
2023-01-17T07:30:48.465Z,5.54
2023-01-17T07:33:15.138Z,5.54
2023-01-17T07:35:41.831Z,5.53
2023-01-17T07:38:16.938Z,5.43
2023-01-17T07:40:43.478Z,5.43
2023-01-17T07:43:16.590Z,5.29
2023-01-17T07:45:50.482Z,5.12
2023-01-17T07:48:18.161Z,4.99
2023-01-17T07:50:44.647Z,4.93
2023-01-17T07:53:11.163Z,4.89
2023-01-17T07:55:37.729Z,4.85
2023-01-17T07:58:04.114Z,4.85
2023-01-17T08:00:30.726Z,4.84
2023-01-17T08:02:58.611Z,4.84
2023-01-17T08:05:25.566Z,4.83
2023-01-17T08:07:52.242Z,4.80
2023-01-17T08:10:18.953Z,4.83
2023-01-17T08:12:47.034Z,4.75
2023-01-17T08:15:14.398Z,4.75
2023-01-17T08:17:48.232Z,4.75
2023-01-17T08:20:16.069Z,4.74
2023-01-17T08:22:42.639Z,4.76
2023-01-17T08:25:09.486Z,4.76
2023-01-17T08:27:36.393Z,4.76
2023-01-17T08:30:03.544Z,4.75
2023-01-17T08:32:29.952Z,4.78
2023-01-17T08:34:57.214Z,4.80
2023-01-17T08:37:23.900Z,4.88
2023-01-17T08:39:50.550Z,4.94
2023-01-17T08:42:17.260Z,4.98
2023-01-17T08:44:44.082Z,5.00
2023-01-17T08:47:10.510Z,4.99
2023-01-17T08:49:37.022Z,4.97
2023-01-17T08:52:03.817Z,4.96
2023-01-17T08:54:30.261Z,4.96
2023-01-17T08:56:56.746Z,4.97
2023-01-17T08:59:23.168Z,4.96
2023-01-17T09:01:49.754Z,4.94
2023-01-17T09:04:16.343Z,4.89
2023-01-17T09:06:45.340Z,4.95
2023-01-17T09:09:11.893Z,4.97
2023-01-17T09:11:38.433Z,4.97
2023-01-17T09:14:04.911Z,5.01
2023-01-17T09:16:31.362Z,4.96
2023-01-17T09:18:58.556Z,5.02
2023-01-17T09:21:25.983Z,5.03
2023-01-17T09:23:52.778Z,5.00
2023-01-17T09:26:23.034Z,5.05
2023-01-17T09:28:50.200Z,5.10
2023-01-17T09:31:17.820Z,5.09
2023-01-17T09:33:44.345Z,5.12
2023-01-17T09:36:10.977Z,5.17
2023-01-17T09:38:37.860Z,5.21
2023-01-17T09:41:15.733Z,5.21
2023-01-17T09:43:49.444Z,5.25
2023-01-17T09:46:29.808Z,5.27
2023-01-17T09:49:06.067Z,5.29
2023-01-17T09:51:32.939Z,5.31
2023-01-17T09:54:00.312Z,5.35
2023-01-17T09:56:38.853Z,5.35
2023-01-17T09:59:32.229Z,5.39
2023-01-17T10:02:19.069Z,5.49
2023-01-17T10:05:16.427Z,5.53
2023-01-17T10:08:04.626Z,5.50
2023-01-17T10:10:41.974Z,5.54
2023-01-17T10:13:25.490Z,5.60
2023-01-17T10:16:12.670Z,5.62
2023-01-17T10:19:04.305Z,5.64
2023-01-17T10:22:02.743Z,5.62
2023-01-17T10:25:04.538Z,5.64
2023-01-17T10:27:37.169Z,5.68
2023-01-17T10:30:13.724Z,5.72
2023-01-17T10:32:42.554Z,5.78
2023-01-17T10:35:18.592Z,5.85
2023-01-17T10:37:45.473Z,5.88
2023-01-17T10:40:23.023Z,5.93
2023-01-17T10:42:58.082Z,5.96
2023-01-17T10:45:28.692Z,5.98
2023-01-17T10:48:04.816Z,6.05
2023-01-17T10:50:41.247Z,6.09
2023-01-17T10:53:10.940Z,6.16
2023-01-17T10:55:53.316Z,6.19
2023-01-17T10:58:19.840Z,6.18
2023-01-17T11:00:54.076Z,6.24
2023-01-17T11:03:21.091Z,6.24
2023-01-17T11:06:23.204Z,6.30
2023-01-17T11:09:00.984Z,6.32
2023-01-17T11:11:32.984Z,6.29
2023-01-17T11:14:01.570Z,6.26
2023-01-17T11:16:32.430Z,6.26
2023-01-17T11:19:21.516Z,6.27
2023-01-17T11:21:53.692Z,6.29
2023-01-17T11:24:26.385Z,6.31
2023-01-17T11:26:52.819Z,6.32
2023-01-17T11:29:30.759Z,6.35
2023-01-17T11:31:57.527Z,6.40
2023-01-17T11:34:26.430Z,6.39
2023-01-17T11:37:18.479Z,6.39
2023-01-17T11:39:48.083Z,6.42
2023-01-17T11:42:34.663Z,6.46
2023-01-17T11:45:27.016Z,6.50
2023-01-17T11:48:12.677Z,6.50
2023-01-17T11:50:41.848Z,6.52
2023-01-17T11:53:24.825Z,6.51
2023-01-17T11:56:07.745Z,6.50
2023-01-17T11:58:36.201Z,6.52
2023-01-17T12:01:23.847Z,6.56
2023-01-17T12:04:00.794Z,6.54
2023-01-17T12:06:57.304Z,6.56
2023-01-17T12:09:49.100Z,6.54
2023-01-17T12:12:47.849Z,6.51
2023-01-17T12:15:32.373Z,6.52
2023-01-17T12:18:13.916Z,6.52
2023-01-17T12:20:58.785Z,6.54
2023-01-17T12:23:31.617Z,6.54
2023-01-17T12:26:10.552Z,6.53
2023-01-17T12:29:10.895Z,6.53
2023-01-17T12:31:49.745Z,6.46
2023-01-17T12:34:30.246Z,6.47
2023-01-17T12:37:15.995Z,6.49
2023-01-17T12:40:02.382Z,6.48
2023-01-17T12:42:34.321Z,6.48
2023-01-17T12:45:21.463Z,6.49
2023-01-17T12:47:54.457Z,6.49
2023-01-17T12:50:33.820Z,6.48
2023-01-17T12:53:18.722Z,6.45
2023-01-17T12:56:02.727Z,6.48
2023-01-17T12:58:41.630Z,6.45
2023-01-17T13:01:43.101Z,6.41
2023-01-17T13:04:21.147Z,6.42
2023-01-17T13:07:05.197Z,6.40
2023-01-17T13:09:38.001Z,6.43
2023-01-17T13:12:07.294Z,6.43
2023-01-17T13:14:33.709Z,6.44
2023-01-17T13:17:24.484Z,6.44
2023-01-17T13:20:17.294Z,6.45
2023-01-17T13:22:44.200Z,6.42
2023-01-17T13:25:34.994Z,6.43
2023-01-17T13:28:14.881Z,6.39
2023-01-17T13:30:54.713Z,6.41
2023-01-17T13:33:39.978Z,6.39
2023-01-17T13:36:40.758Z,6.36
2023-01-17T13:39:25.454Z,6.35
2023-01-17T13:41:56.771Z,6.28
2023-01-17T13:44:25.967Z,6.28
2023-01-17T13:47:04.144Z,6.25
2023-01-17T13:49:31.542Z,6.21
2023-01-17T13:52:12.235Z,6.22
2023-01-17T13:54:50.226Z,6.20
2023-01-17T13:57:27.910Z,6.21
2023-01-17T13:59:57.536Z,6.21
2023-01-17T14:02:32.992Z,6.19
2023-01-17T14:05:21.157Z,6.17
2023-01-17T14:07:59.491Z,6.13
2023-01-17T14:10:40.881Z,6.14
2023-01-17T14:13:37.656Z,6.12
2023-01-17T14:16:25.662Z,6.10
2023-01-17T14:18:53.100Z,6.09
2023-01-17T14:21:23.572Z,6.09
2023-01-17T14:24:10.354Z,6.08
2023-01-17T14:26:58.925Z,6.06
2023-01-17T14:29:53.884Z,6.05
2023-01-17T14:32:23.118Z,6.03
2023-01-17T14:34:51.348Z,6.02
2023-01-17T14:37:32.899Z,5.99
2023-01-17T14:40:00.786Z,5.99
2023-01-17T14:42:29.552Z,5.97
2023-01-17T14:45:01.268Z,5.95
2023-01-17T14:47:31.625Z,5.96
2023-01-17T14:50:24.839Z,5.93
2023-01-17T14:53:13.011Z,5.86
2023-01-17T14:55:48.458Z,5.81
2023-01-17T14:58:17.580Z,5.78
2023-01-17T15:00:44.139Z,5.72
2023-01-17T15:03:11.837Z,5.68
2023-01-17T15:05:40.947Z,5.63
2023-01-17T15:08:14.776Z,5.58
2023-01-17T15:10:58.360Z,5.58
2023-01-17T15:13:43.389Z,5.60
2023-01-17T15:16:22.259Z,5.58
2023-01-17T15:18:49.016Z,5.55
2023-01-17T15:21:20.620Z,5.55
2023-01-17T15:23:50.409Z,5.49
2023-01-17T15:26:18.425Z,5.45
2023-01-17T15:28:45.283Z,5.41
2023-01-17T15:31:44.843Z,5.38
2023-01-17T15:34:31.148Z,5.34
2023-01-17T15:37:00.541Z,5.32
2023-01-17T15:39:32.282Z,5.30
2023-01-17T15:42:00.988Z,5.25
2023-01-17T15:44:47.367Z,5.23
2023-01-17T15:47:28.687Z,5.16
2023-01-17T15:49:55.161Z,5.12
2023-01-17T15:52:21.763Z,5.09
2023-01-17T15:54:59.445Z,5.05
2023-01-17T15:57:33.431Z,4.99
2023-01-17T16:00:08.606Z,4.96
2023-01-17T16:02:58.676Z,4.90
2023-01-17T16:05:25.699Z,4.84
2023-01-17T16:07:53.803Z,4.80
2023-01-17T16:10:22.544Z,4.76
2023-01-17T16:12:51.247Z,4.67
2023-01-17T16:15:18.608Z,4.61
2023-01-17T16:17:47.460Z,4.59
2023-01-17T16:20:20.600Z,4.56
2023-01-17T16:22:47.698Z,4.54
2023-01-17T16:25:19.743Z,4.51
2023-01-17T16:27:46.616Z,4.46
2023-01-17T16:30:18.396Z,4.41
2023-01-17T16:32:49.263Z,4.38
2023-01-17T16:35:24.735Z,4.35
2023-01-17T16:37:53.249Z,4.33
2023-01-17T16:40:21.072Z,4.28
2023-01-17T16:42:47.884Z,4.27
2023-01-17T16:45:14.352Z,4.22
2023-01-17T16:47:42.047Z,4.19
2023-01-17T16:50:11.114Z,4.15
2023-01-17T16:52:37.593Z,4.11
2023-01-17T16:55:06.711Z,4.08
2023-01-17T16:57:33.139Z,4.06
2023-01-17T16:59:59.638Z,4.02
2023-01-17T17:02:26.163Z,3.98
2023-01-17T17:04:52.654Z,3.94
2023-01-17T17:07:19.087Z,3.91
2023-01-17T17:09:45.492Z,3.84
2023-01-17T17:12:11.912Z,3.82
2023-01-17T17:14:38.350Z,3.79
2023-01-17T17:17:04.862Z,3.75
2023-01-17T17:19:31.256Z,3.73
2023-01-17T17:21:58.676Z,3.70
2023-01-17T17:24:25.109Z,3.68
2023-01-17T17:26:51.626Z,3.64
2023-01-17T17:29:18.082Z,3.62
2023-01-17T17:31:44.680Z,3.62
2023-01-17T17:34:13.035Z,3.58
2023-01-17T17:36:39.751Z,3.56
2023-01-17T17:39:09.153Z,3.54
2023-01-17T17:41:36.582Z,3.50
2023-01-17T17:44:03.947Z,3.49
2023-01-17T17:46:30.988Z,3.44
2023-01-17T17:48:58.286Z,3.37
2023-01-17T17:51:29.715Z,3.31
2023-01-17T17:54:01.123Z,3.27
2023-01-17T17:56:28.765Z,3.26
2023-01-17T17:58:56.747Z,3.20
2023-01-17T18:01:24.071Z,3.17
2023-01-17T18:03:55.983Z,3.14
2023-01-17T18:06:23.026Z,3.11
2023-01-17T18:08:51.792Z,3.08
2023-01-17T18:11:21.283Z,3.06
2023-01-17T18:13:50.398Z,3.02
2023-01-17T18:16:19.888Z,3.00
2023-01-17T18:18:51.704Z,2.95
2023-01-17T18:21:27.828Z,2.93
2023-01-17T18:24:01.755Z,2.91
2023-01-17T18:26:34.125Z,2.87
2023-01-17T18:29:01.343Z,2.83
2023-01-17T18:31:28.542Z,2.82
2023-01-17T18:33:56.159Z,2.82
2023-01-17T18:36:23.703Z,2.79
2023-01-17T18:38:51.648Z,2.77
2023-01-17T18:41:26.637Z,2.75
2023-01-17T18:43:53.439Z,2.73
2023-01-17T18:46:20.044Z,2.72
2023-01-17T18:48:46.503Z,2.68
2023-01-17T18:51:14.974Z,2.65
2023-01-17T18:53:42.683Z,2.62
2023-01-17T18:56:11.634Z,2.59
2023-01-17T18:58:41.670Z,2.53
2023-01-17T19:01:18.619Z,2.45
2023-01-17T19:03:46.873Z,2.41
2023-01-17T19:06:18.493Z,2.40
2023-01-17T19:08:45.166Z,2.36
2023-01-17T19:11:12.370Z,2.34
2023-01-17T19:13:39.332Z,2.34
2023-01-17T19:16:08.901Z,2.31
2023-01-17T19:18:35.298Z,2.27
2023-01-17T19:21:10.471Z,2.20
2023-01-17T19:23:37.738Z,2.18
2023-01-17T19:26:05.992Z,2.13
2023-01-17T19:28:35.428Z,2.12
2023-01-17T19:31:10.052Z,2.08
2023-01-17T19:33:37.654Z,2.04
2023-01-17T19:36:06.014Z,2.02
2023-01-17T19:38:34.380Z,1.99
2023-01-17T19:41:14.016Z,1.98
2023-01-17T19:43:42.008Z,1.95
2023-01-17T19:46:09.346Z,1.90
2023-01-17T19:48:36.729Z,1.87
2023-01-17T19:51:08.141Z,1.85
2023-01-17T19:53:35.946Z,1.85
2023-01-17T19:56:20.194Z,1.83
2023-01-17T19:58:47.128Z,1.81
2023-01-17T20:01:15.697Z,1.78
2023-01-17T20:03:44.134Z,1.75
2023-01-17T20:06:12.397Z,1.73
2023-01-17T20:08:38.856Z,1.70
2023-01-17T20:11:07.388Z,1.67
2023-01-17T20:13:33.907Z,1.63
2023-01-17T20:16:08.537Z,1.62
2023-01-17T20:18:35.630Z,1.57
2023-01-17T20:21:03.944Z,1.55
2023-01-17T20:23:35.121Z,1.52
2023-01-17T20:26:03.381Z,1.49
2023-01-17T20:28:31.350Z,1.49
2023-01-17T20:31:04.788Z,1.47
2023-01-17T20:33:31.227Z,1.44
2023-01-17T20:36:10.597Z,1.44
2023-01-17T20:38:44.617Z,1.43
2023-01-17T20:41:22.746Z,1.39
2023-01-17T20:43:51.287Z,1.39
2023-01-17T20:46:19.204Z,1.40
2023-01-17T20:48:47.287Z,1.39
2023-01-17T20:51:14.899Z,1.39
2023-01-17T20:53:42.317Z,1.37
2023-01-17T20:56:09.498Z,1.34
2023-01-17T20:58:35.928Z,1.34
2023-01-17T21:01:02.408Z,1.33
2023-01-17T21:03:29.254Z,1.32
2023-01-17T21:06:07.659Z,1.31
2023-01-17T21:08:36.119Z,1.28
2023-01-17T21:11:02.556Z,1.30
2023-01-17T21:13:28.989Z,1.28
2023-01-17T21:15:55.655Z,1.28
2023-01-17T21:18:23.641Z,1.27
2023-01-17T21:20:50.466Z,1.24
2023-01-17T21:23:20.123Z,1.23
2023-01-17T21:25:54.788Z,1.23
2023-01-17T21:28:23.158Z,1.21
2023-01-17T21:30:52.447Z,1.20
2023-01-17T21:33:20.043Z,1.19
2023-01-17T21:35:46.619Z,1.16
2023-01-17T21:38:16.444Z,1.14
2023-01-17T21:40:43.570Z,1.12
2023-01-17T21:43:10.579Z,1.11
2023-01-17T21:45:41.477Z,1.10
2023-01-17T21:48:12.200Z,1.07
2023-01-17T21:50:39.287Z,1.08
2023-01-17T21:53:05.910Z,1.06
2023-01-17T21:55:50.983Z,1.05
2023-01-17T21:58:36.627Z,1.03
2023-01-17T22:01:15.933Z,1.03
2023-01-17T22:03:42.793Z,1.08
2023-01-17T22:06:10.224Z,1.10
2023-01-17T22:08:37.315Z,1.13
2023-01-17T22:11:09.098Z,1.12
2023-01-17T22:13:35.848Z,1.10
2023-01-17T22:16:05.248Z,1.10
2023-01-17T22:18:33.684Z,1.09
2023-01-17T22:21:04.234Z,1.06
2023-01-17T22:23:30.825Z,1.04
2023-01-17T22:26:09.659Z,1.02
2023-01-17T22:28:36.786Z,1.01
2023-01-17T22:31:08.827Z,1.00
2023-01-17T22:33:39.193Z,1.00
2023-01-17T22:36:06.449Z,1.01
2023-01-17T22:38:33.513Z,0.97
2023-01-17T22:41:16.569Z,0.96
2023-01-17T22:43:45.208Z,0.94
2023-01-17T22:46:14.150Z,0.92
2023-01-17T22:48:41.096Z,0.92
2023-01-17T22:51:10.121Z,0.91
2023-01-17T22:53:41.379Z,0.88
2023-01-17T22:56:10.025Z,0.86
2023-01-17T22:58:36.668Z,0.86
2023-01-17T23:01:08.037Z,0.84
2023-01-17T23:03:34.971Z,0.83
2023-01-17T23:06:16.081Z,0.82
2023-01-17T23:08:44.413Z,0.81
2023-01-17T23:11:42.249Z,0.82
2023-01-17T23:14:10.243Z,0.82
2023-01-17T23:16:56.477Z,0.80
2023-01-17T23:19:23.138Z,0.79
2023-01-17T23:22:14.396Z,0.77
2023-01-17T23:24:45.373Z,0.76
2023-01-17T23:27:39.644Z,0.72
2023-01-17T23:30:11.756Z,0.66
2023-01-17T23:32:39.417Z,0.66
2023-01-17T23:35:06.644Z,0.64
2023-01-17T23:37:51.676Z,0.59
2023-01-17T23:40:18.309Z,0.59
2023-01-17T23:43:03.369Z,0.60
2023-01-17T23:45:29.851Z,0.59
2023-01-17T23:47:56.351Z,0.60
2023-01-17T23:50:22.795Z,0.59
2023-01-17T23:52:49.195Z,0.57
2023-01-17T23:55:15.703Z,0.58
2023-01-17T23:57:42.104Z,0.56
